createdAt,value
2019-03-31T00:00:03.636Z,1005.50
2019-03-31T00:01:08.393Z,1005.51
2019-03-31T00:02:04.652Z,1005.51
2019-03-31T00:03:03.612Z,1005.52
2019-03-31T00:04:03.593Z,1005.52
2019-03-31T00:05:03.577Z,1005.43
2019-03-31T00:06:03.565Z,1005.48
2019-03-31T00:07:03.578Z,1005.49
2019-03-31T00:08:03.546Z,1005.55
2019-03-31T00:09:03.536Z,1005.52
2019-03-31T00:10:03.527Z,1005.52
2019-03-31T00:11:03.509Z,1005.53
2019-03-31T00:12:03.517Z,1005.48
2019-03-31T00:13:03.489Z,1005.49
2019-03-31T00:14:03.476Z,1005.48
2019-03-31T00:15:03.477Z,1005.50
2019-03-31T00:16:03.459Z,1005.48
2019-03-31T00:17:03.481Z,1005.47
2019-03-31T00:18:03.444Z,1005.45
2019-03-31T00:19:03.422Z,1005.45
2019-03-31T00:20:03.411Z,1005.45
2019-03-31T00:21:03.407Z,1005.43
2019-03-31T00:22:03.398Z,1005.43
2019-03-31T00:23:03.397Z,1005.41
2019-03-31T00:24:03.378Z,1005.43
2019-03-31T00:25:03.359Z,1005.39
2019-03-31T00:26:03.346Z,1005.46
2019-03-31T00:27:03.343Z,1005.52
2019-03-31T00:28:03.349Z,1005.51
2019-03-31T00:29:03.323Z,1005.51
2019-03-31T00:30:03.314Z,1005.53
2019-03-31T00:31:03.299Z,1005.53
2019-03-31T00:32:03.283Z,1005.51
2019-03-31T00:33:03.300Z,1005.51
2019-03-31T00:34:03.266Z,1005.49
2019-03-31T00:35:03.257Z,1005.53
2019-03-31T00:36:03.242Z,1005.47
2019-03-31T00:37:03.233Z,1005.47
2019-03-31T00:38:03.252Z,1005.49
2019-03-31T00:39:03.215Z,1005.47
2019-03-31T00:40:03.201Z,1005.44
2019-03-31T00:41:03.188Z,1005.47
2019-03-31T00:42:03.197Z,1005.44
2019-03-31T00:43:03.180Z,1005.40
2019-03-31T00:44:03.153Z,1005.39
2019-03-31T00:45:03.146Z,1005.40
2019-03-31T00:46:03.133Z,1005.45
2019-03-31T00:47:03.124Z,1005.44
2019-03-31T00:48:03.131Z,1005.46
2019-03-31T00:49:03.101Z,1005.47
2019-03-31T00:50:03.092Z,1005.47
2019-03-31T00:51:03.107Z,1005.48
2019-03-31T00:52:03.068Z,1005.50
2019-03-31T00:53:03.078Z,1005.49
2019-03-31T00:54:03.053Z,1005.47
2019-03-31T00:55:03.036Z,1005.49
2019-03-31T00:56:03.022Z,1005.51
2019-03-31T00:57:03.024Z,1005.55
2019-03-31T00:58:02.998Z,1005.53
2019-03-31T00:59:03.029Z,1005.59
2019-03-31T01:00:02.987Z,1005.57
2019-03-31T01:01:02.977Z,1005.60
2019-03-31T01:02:02.963Z,1005.65
2019-03-31T01:03:03.031Z,1005.63
2019-03-31T01:04:02.943Z,1005.65
2019-03-31T01:05:02.941Z,1005.66
2019-03-31T01:06:02.936Z,1005.58
2019-03-31T01:07:02.906Z,1005.62
2019-03-31T01:08:02.899Z,1005.63
2019-03-31T01:09:02.879Z,1005.63
2019-03-31T01:10:02.872Z,1005.66
2019-03-31T01:11:02.884Z,1005.70
2019-03-31T01:12:02.853Z,1005.68
2019-03-31T01:13:02.848Z,1005.67
2019-03-31T01:14:02.830Z,1005.66
2019-03-31T01:15:02.817Z,1005.68
2019-03-31T01:16:02.822Z,1005.68
2019-03-31T01:17:02.793Z,1005.70
2019-03-31T01:18:02.786Z,1005.70
2019-03-31T01:19:02.775Z,1005.66
2019-03-31T01:20:02.770Z,1005.62
2019-03-31T01:21:02.776Z,1005.64
2019-03-31T01:22:02.746Z,1005.66
2019-03-31T01:23:02.732Z,1005.70
2019-03-31T01:24:02.720Z,1005.71
2019-03-31T01:25:02.713Z,1005.72
2019-03-31T01:26:02.703Z,1005.77
2019-03-31T01:27:02.709Z,1005.76
2019-03-31T01:28:02.675Z,1005.81
2019-03-31T01:29:02.664Z,1005.82
2019-03-31T01:30:02.656Z,1005.83
2019-03-31T01:31:02.658Z,1005.80
2019-03-31T01:32:02.665Z,1005.81
2019-03-31T01:33:02.630Z,1005.84
2019-03-31T01:34:02.616Z,1005.81
2019-03-31T01:35:02.605Z,1005.79
2019-03-31T01:36:02.592Z,1005.83
2019-03-31T01:37:02.606Z,1005.83
2019-03-31T01:38:02.575Z,1005.82
2019-03-31T01:39:02.561Z,1005.81
2019-03-31T01:40:02.554Z,1005.82
2019-03-31T01:41:02.535Z,1005.83
2019-03-31T01:42:02.528Z,1005.79
2019-03-31T01:43:02.547Z,1005.74
2019-03-31T01:44:02.509Z,1005.78
2019-03-31T01:45:02.498Z,1005.82
2019-03-31T01:46:02.485Z,1005.81
2019-03-31T01:47:02.473Z,1005.82
2019-03-31T01:48:02.520Z,1005.81
2019-03-31T01:49:02.467Z,1005.84
2019-03-31T01:50:02.442Z,1005.85
2019-03-31T01:51:02.432Z,1005.83
2019-03-31T01:52:02.426Z,1005.85
2019-03-31T01:53:02.413Z,1005.79
2019-03-31T01:54:02.429Z,1005.81
2019-03-31T01:55:02.386Z,1005.76
2019-03-31T01:56:02.373Z,1005.76
2019-03-31T01:57:02.980Z,1005.77
2019-03-31T01:58:02.356Z,1005.82
2019-03-31T01:59:02.343Z,1005.79
2019-03-31T02:00:02.349Z,1005.83
2019-03-31T02:01:02.321Z,1005.82
2019-03-31T02:02:04.526Z,1005.86
2019-03-31T02:03:02.303Z,1005.88
2019-03-31T02:04:02.294Z,1005.78
2019-03-31T02:05:02.288Z,1005.82
2019-03-31T02:06:02.275Z,1005.82
2019-03-31T02:07:02.257Z,1005.86
2019-03-31T02:08:02.263Z,1005.82
2019-03-31T02:09:02.238Z,1005.82
2019-03-31T02:10:02.244Z,1005.79
2019-03-31T02:11:02.217Z,1005.81
2019-03-31T02:12:02.207Z,1005.83
2019-03-31T02:13:02.190Z,1005.82
2019-03-31T02:14:02.185Z,1005.80
2019-03-31T02:15:02.192Z,1005.84
2019-03-31T02:16:02.165Z,1005.87
2019-03-31T02:17:02.155Z,1005.80
2019-03-31T02:18:02.149Z,1005.85
2019-03-31T02:19:02.130Z,1005.86
2019-03-31T02:20:02.140Z,1005.87
2019-03-31T02:21:02.122Z,1005.85
2019-03-31T02:22:02.101Z,1005.88
2019-03-31T02:23:02.088Z,1005.87
2019-03-31T02:24:02.079Z,1005.87
2019-03-31T02:25:02.081Z,1005.86
2019-03-31T02:26:02.076Z,1005.86
2019-03-31T02:27:02.043Z,1005.83
2019-03-31T02:28:02.031Z,1005.86
2019-03-31T02:29:02.033Z,1005.78
2019-03-31T02:30:02.039Z,1005.79
2019-03-31T02:31:02.000Z,1005.82
2019-03-31T02:32:01.987Z,1005.82
2019-03-31T02:33:01.977Z,1005.79
2019-03-31T02:34:01.969Z,1005.85
2019-03-31T02:35:02.009Z,1005.79
2019-03-31T02:36:01.969Z,1005.84
2019-03-31T02:37:01.978Z,1005.80
2019-03-31T02:38:01.941Z,1005.84
2019-03-31T02:39:01.915Z,1005.82
2019-03-31T02:40:01.904Z,1005.79
2019-03-31T02:41:01.892Z,1005.80
2019-03-31T02:42:01.908Z,1005.86
2019-03-31T02:43:01.877Z,1005.83
2019-03-31T02:44:01.871Z,1005.81
2019-03-31T02:45:01.863Z,1005.87
2019-03-31T02:46:01.857Z,1005.86
2019-03-31T02:47:01.995Z,1005.84
2019-03-31T02:48:01.832Z,1005.85
2019-03-31T02:49:01.878Z,1005.86
2019-03-31T02:50:01.799Z,1005.85
2019-03-31T02:51:01.787Z,1005.84
2019-03-31T02:52:01.798Z,1005.85
2019-03-31T02:53:01.776Z,1005.81
2019-03-31T02:54:01.763Z,1005.86
2019-03-31T02:55:01.750Z,1005.90
2019-03-31T02:56:01.740Z,1005.89
2019-03-31T02:57:01.865Z,1005.91
2019-03-31T02:58:01.734Z,1005.93
2019-03-31T02:59:01.704Z,1005.91
2019-03-31T03:00:01.763Z,1005.94
2019-03-31T03:01:01.691Z,1005.93
2019-03-31T03:02:01.671Z,1005.96
2019-03-31T03:03:01.686Z,1005.95
2019-03-31T03:04:01.646Z,1005.95
2019-03-31T03:05:17.656Z,1005.94
2019-03-31T03:06:02.625Z,1005.94
2019-03-31T03:07:01.619Z,1005.93
2019-03-31T03:08:01.786Z,1005.92
2019-03-31T03:09:01.602Z,1005.94
2019-03-31T03:10:01.639Z,1005.93
2019-03-31T03:11:01.572Z,1005.88
2019-03-31T03:12:01.559Z,1005.91
2019-03-31T03:13:01.564Z,1005.86
2019-03-31T03:14:01.545Z,1005.87
2019-03-31T03:15:01.529Z,1005.87
2019-03-31T03:16:01.525Z,1005.87
2019-03-31T03:17:01.508Z,1005.87
2019-03-31T03:18:01.517Z,1005.89
2019-03-31T03:19:01.490Z,1005.86
2019-03-31T03:20:01.480Z,1005.91
2019-03-31T03:21:01.468Z,1005.95
2019-03-31T03:22:01.572Z,1005.98
2019-03-31T03:23:01.468Z,1006.00
2019-03-31T03:24:01.429Z,1006.03
2019-03-31T03:25:01.418Z,1006.03
2019-03-31T03:26:01.409Z,1006.07
2019-03-31T03:27:01.407Z,1006.00
2019-03-31T03:28:01.410Z,1006.01
2019-03-31T03:29:01.381Z,1005.96
2019-03-31T03:30:01.379Z,1006.05
2019-03-31T03:31:01.493Z,1006.07
2019-03-31T03:32:01.344Z,1006.04
2019-03-31T03:33:14.837Z,1006.03
2019-03-31T03:34:02.339Z,1006.00
2019-03-31T03:35:01.433Z,1006.01
2019-03-31T03:36:01.301Z,1006.00
2019-03-31T03:37:01.290Z,1005.98
2019-03-31T03:38:01.280Z,1006.00
2019-03-31T03:39:01.288Z,1006.02
2019-03-31T03:40:01.263Z,1006.05
2019-03-31T03:41:01.259Z,1006.07
2019-03-31T03:42:01.237Z,1006.05
2019-03-31T03:43:01.228Z,1006.09
2019-03-31T03:44:02.578Z,1006.12
2019-03-31T03:45:01.202Z,1006.14
2019-03-31T03:46:01.198Z,1006.20
2019-03-31T03:47:01.205Z,1006.18
2019-03-31T03:48:01.176Z,1006.14
2019-03-31T03:49:01.191Z,1006.19
2019-03-31T03:50:01.164Z,1006.16
2019-03-31T03:51:01.149Z,1006.11
2019-03-31T03:52:01.142Z,1006.11
2019-03-31T03:53:01.120Z,1006.07
2019-03-31T03:54:01.135Z,1006.10
2019-03-31T03:55:01.097Z,1006.17
2019-03-31T03:56:01.082Z,1006.19
2019-03-31T03:57:01.070Z,1006.20
2019-03-31T03:58:01.061Z,1006.22
2019-03-31T03:59:01.056Z,1006.20
2019-03-31T04:00:01.064Z,1006.20
2019-03-31T04:01:01.044Z,1006.22
2019-03-31T04:02:01.048Z,1006.25
2019-03-31T04:03:01.009Z,1006.22
2019-03-31T04:04:01.030Z,1006.23
2019-03-31T04:05:01.065Z,1006.23
2019-03-31T04:06:00.978Z,1006.27
2019-03-31T04:07:00.964Z,1006.24
2019-03-31T04:08:00.952Z,1006.24
2019-03-31T04:09:00.958Z,1006.22
2019-03-31T04:10:00.932Z,1006.24
2019-03-31T04:11:00.923Z,1006.27
2019-03-31T04:12:00.923Z,1006.26
2019-03-31T04:13:00.909Z,1006.23
2019-03-31T04:14:00.919Z,1006.25
2019-03-31T04:15:00.878Z,1006.28
2019-03-31T04:16:00.868Z,1006.28
2019-03-31T04:17:00.859Z,1006.29
2019-03-31T04:18:00.855Z,1006.30
2019-03-31T04:19:00.845Z,1006.34
2019-03-31T04:20:00.845Z,1006.33
2019-03-31T04:21:00.811Z,1006.36
2019-03-31T04:22:00.800Z,1006.37
2019-03-31T04:23:00.795Z,1006.36
2019-03-31T04:24:00.788Z,1006.37
2019-03-31T04:25:00.796Z,1006.43
2019-03-31T04:26:00.779Z,1006.43
2019-03-31T04:27:00.751Z,1006.44
2019-03-31T04:28:00.736Z,1006.54
2019-03-31T04:29:00.728Z,1006.47
2019-03-31T04:30:00.880Z,1006.48
2019-03-31T04:31:00.709Z,1006.46
2019-03-31T04:32:00.720Z,1006.43
2019-03-31T04:33:00.690Z,1006.45
2019-03-31T04:34:00.676Z,1006.43
2019-03-31T04:35:00.754Z,1006.44
2019-03-31T04:36:00.649Z,1006.45
2019-03-31T04:37:00.644Z,1006.49
2019-03-31T04:38:00.631Z,1006.45
2019-03-31T04:39:00.955Z,1006.46
2019-03-31T04:40:00.651Z,1006.48
2019-03-31T04:41:00.596Z,1006.49
2019-03-31T04:42:00.595Z,1006.48
2019-03-31T04:43:00.578Z,1006.50
2019-03-31T04:44:00.574Z,1006.54
2019-03-31T04:45:00.581Z,1006.53
2019-03-31T04:46:00.544Z,1006.53
2019-03-31T04:47:00.537Z,1006.51
2019-03-31T04:48:00.521Z,1006.51
2019-03-31T04:49:00.514Z,1006.47
2019-03-31T04:50:00.502Z,1006.52
2019-03-31T04:51:00.507Z,1006.56
2019-03-31T04:52:00.481Z,1006.58
2019-03-31T04:53:00.464Z,1006.58
2019-03-31T04:54:00.539Z,1006.62
2019-03-31T04:55:00.528Z,1006.60
2019-03-31T04:56:00.462Z,1006.65
2019-03-31T04:57:00.444Z,1006.61
2019-03-31T04:58:00.413Z,1006.65
2019-03-31T04:59:00.405Z,1006.64
2019-03-31T05:00:00.441Z,1006.68
2019-03-31T05:01:00.377Z,1006.68
2019-03-31T05:02:00.388Z,1006.69
2019-03-31T05:03:00.383Z,1006.65
2019-03-31T05:04:05.110Z,1006.63
2019-03-31T05:05:01.340Z,1006.63
2019-03-31T05:06:00.326Z,1006.64
2019-03-31T05:07:00.316Z,1006.65
2019-03-31T05:08:00.326Z,1006.63
2019-03-31T05:09:00.302Z,1006.61
2019-03-31T05:10:00.443Z,1006.65
2019-03-31T05:11:00.311Z,1006.63
2019-03-31T05:12:00.256Z,1006.69
2019-03-31T05:13:00.285Z,1006.67
2019-03-31T05:14:00.264Z,1006.62
2019-03-31T05:15:00.244Z,1006.69
2019-03-31T05:16:00.270Z,1006.64
2019-03-31T05:17:00.226Z,1006.68
2019-03-31T05:18:00.293Z,1006.66
2019-03-31T05:19:00.184Z,1006.70
2019-03-31T05:20:00.356Z,1006.73
2019-03-31T05:21:00.165Z,1006.78
2019-03-31T05:22:00.153Z,1006.79
2019-03-31T05:23:00.158Z,1006.82
2019-03-31T05:24:00.131Z,1006.82
2019-03-31T05:25:00.382Z,1006.85
2019-03-31T05:26:00.112Z,1006.84
2019-03-31T05:27:00.095Z,1006.91
2019-03-31T05:28:00.104Z,1006.95
2019-03-31T05:29:00.079Z,1007.00
2019-03-31T05:30:00.345Z,1007.02
2019-03-31T05:31:00.055Z,1007.04
2019-03-31T05:32:00.063Z,1007.04
2019-03-31T05:33:00.054Z,1007.02
2019-03-31T05:34:00.024Z,1007.02
2019-03-31T05:35:00.010Z,1007.08
2019-03-31T05:35:59.999Z,1007.03
2019-03-31T05:36:59.986Z,1007.04
2019-03-31T05:37:59.998Z,1007.09
2019-03-31T05:38:59.969Z,1007.10
2019-03-31T05:39:59.964Z,1007.08
2019-03-31T05:40:59.941Z,1007.08
2019-03-31T05:41:59.935Z,1007.09
2019-03-31T05:42:59.942Z,1007.09
2019-03-31T05:44:05.815Z,1007.07
2019-03-31T05:45:00.909Z,1007.08
2019-03-31T05:45:59.894Z,1007.07
2019-03-31T05:46:59.908Z,1007.06
2019-03-31T05:47:59.873Z,1007.06
2019-03-31T05:48:59.855Z,1007.10
2019-03-31T05:49:59.847Z,1007.14
2019-03-31T05:50:59.840Z,1007.13
2019-03-31T05:51:59.835Z,1007.14
2019-03-31T05:52:59.837Z,1007.15
2019-03-31T05:53:59.811Z,1007.25
2019-03-31T05:54:59.816Z,1007.25
2019-03-31T05:55:59.781Z,1007.29
2019-03-31T05:56:59.781Z,1007.27
2019-03-31T05:57:59.780Z,1007.31
2019-03-31T05:58:59.772Z,1007.28
2019-03-31T05:59:59.738Z,1007.29
2019-03-31T06:01:00.245Z,1007.27
2019-03-31T06:01:59.716Z,1007.26
2019-03-31T06:02:59.718Z,1007.28
2019-03-31T06:03:59.722Z,1007.28
2019-03-31T06:04:59.693Z,1007.32
2019-03-31T06:05:59.692Z,1007.32
2019-03-31T06:06:59.663Z,1007.35
2019-03-31T06:07:59.648Z,1007.35
2019-03-31T06:08:59.662Z,1007.35
2019-03-31T06:09:59.632Z,1007.34
2019-03-31T06:10:59.620Z,1007.33
2019-03-31T06:11:59.612Z,1007.31
2019-03-31T06:12:59.597Z,1007.36
2019-03-31T06:13:59.586Z,1007.40
2019-03-31T06:14:59.607Z,1007.39
2019-03-31T06:15:59.582Z,1007.35
2019-03-31T06:16:59.556Z,1007.38
2019-03-31T06:17:59.547Z,1007.41
2019-03-31T06:18:59.533Z,1007.48
2019-03-31T06:19:59.543Z,1007.43
2019-03-31T06:20:59.507Z,1007.50
2019-03-31T06:21:59.506Z,1007.48
2019-03-31T06:22:59.490Z,1007.43
2019-03-31T06:23:59.500Z,1007.52
2019-03-31T06:24:59.476Z,1007.50
2019-03-31T06:25:59.475Z,1007.43
2019-03-31T06:26:59.446Z,1007.47
2019-03-31T06:27:59.430Z,1007.44
2019-03-31T06:28:59.444Z,1007.46
2019-03-31T06:29:59.413Z,1007.47
2019-03-31T06:30:59.404Z,1007.45
2019-03-31T06:31:59.405Z,1007.52
2019-03-31T06:32:59.381Z,1007.53
2019-03-31T06:33:59.396Z,1007.53
2019-03-31T06:34:59.371Z,1007.60
2019-03-31T06:35:59.368Z,1007.56
2019-03-31T06:36:59.370Z,1007.55
2019-03-31T06:37:59.328Z,1007.60
2019-03-31T06:38:59.342Z,1007.58
2019-03-31T06:39:59.304Z,1007.61
2019-03-31T06:40:59.292Z,1007.63
2019-03-31T06:41:59.280Z,1007.65
2019-03-31T06:42:59.272Z,1007.64
2019-03-31T06:43:59.264Z,1007.68
2019-03-31T06:44:59.311Z,1007.73
2019-03-31T06:45:59.237Z,1007.75
2019-03-31T06:46:59.229Z,1007.74
2019-03-31T06:47:59.225Z,1007.78
2019-03-31T06:48:59.214Z,1007.78
2019-03-31T06:49:59.223Z,1007.81
2019-03-31T06:50:59.196Z,1007.77
2019-03-31T06:51:59.186Z,1007.83
2019-03-31T06:52:59.162Z,1007.82
2019-03-31T06:53:59.151Z,1007.82
2019-03-31T06:54:59.160Z,1007.82
2019-03-31T06:55:59.175Z,1007.80
2019-03-31T06:56:59.161Z,1007.83
2019-03-31T06:57:59.128Z,1007.84
2019-03-31T06:58:59.096Z,1007.85
2019-03-31T06:59:59.086Z,1007.86
2019-03-31T07:00:59.078Z,1007.88
2019-03-31T07:01:59.085Z,1007.90
2019-03-31T07:02:59.058Z,1007.93
2019-03-31T07:03:59.043Z,1007.97
2019-03-31T07:05:01.272Z,1007.93
2019-03-31T07:05:59.096Z,1007.97
2019-03-31T07:06:59.019Z,1008.00
2019-03-31T07:07:59.002Z,1008.02
2019-03-31T07:08:58.997Z,1008.04
2019-03-31T07:09:58.996Z,1008.04
2019-03-31T07:10:58.966Z,1008.06
2019-03-31T07:11:58.983Z,1008.12
2019-03-31T07:12:59.869Z,1008.16
2019-03-31T07:13:58.938Z,1008.15
2019-03-31T07:14:58.930Z,1008.18
2019-03-31T07:15:58.949Z,1008.20
2019-03-31T07:16:58.928Z,1008.22
2019-03-31T07:17:58.897Z,1008.22
2019-03-31T07:18:58.886Z,1008.18
2019-03-31T07:19:58.891Z,1008.25
2019-03-31T07:20:58.877Z,1008.23
2019-03-31T07:21:58.888Z,1008.27
2019-03-31T07:22:58.835Z,1008.25
2019-03-31T07:23:58.822Z,1008.30
2019-03-31T07:24:58.812Z,1008.28
2019-03-31T07:25:58.811Z,1008.27
2019-03-31T07:26:58.793Z,1008.32
2019-03-31T07:27:58.803Z,1008.33
2019-03-31T07:28:58.773Z,1008.34
2019-03-31T07:29:58.780Z,1008.34
2019-03-31T07:30:59.498Z,1008.30
2019-03-31T07:31:58.738Z,1008.31
2019-03-31T07:32:58.771Z,1008.34
2019-03-31T07:33:58.733Z,1008.33
2019-03-31T07:34:58.703Z,1008.37
2019-03-31T07:35:58.693Z,1008.36
2019-03-31T07:36:58.698Z,1008.32
2019-03-31T07:37:58.676Z,1008.34
2019-03-31T07:38:58.684Z,1008.36
2019-03-31T07:39:58.662Z,1008.33
2019-03-31T07:41:12.122Z,1008.36
2019-03-31T07:42:00.035Z,1008.40
2019-03-31T07:42:58.658Z,1008.40
2019-03-31T07:43:58.629Z,1008.38
2019-03-31T07:44:58.602Z,1008.40
2019-03-31T07:45:58.587Z,1008.36
2019-03-31T07:46:58.580Z,1008.37
2019-03-31T07:47:58.568Z,1008.35
2019-03-31T07:48:58.563Z,1008.32
2019-03-31T07:49:58.560Z,1008.36
2019-03-31T07:50:58.538Z,1008.36
2019-03-31T07:51:58.523Z,1008.39
2019-03-31T07:52:58.512Z,1008.40
2019-03-31T07:53:58.505Z,1008.44
2019-03-31T07:54:58.524Z,1008.44
2019-03-31T07:55:58.504Z,1008.46
2019-03-31T07:56:58.464Z,1008.43
2019-03-31T07:57:58.491Z,1008.45
2019-03-31T07:58:58.451Z,1008.51
2019-03-31T07:59:58.441Z,1008.52
2019-03-31T08:00:58.426Z,1008.48
2019-03-31T08:01:58.430Z,1008.54
2019-03-31T08:03:00.285Z,1008.52
2019-03-31T08:03:58.386Z,1008.58
2019-03-31T08:04:58.382Z,1008.58
2019-03-31T08:05:58.398Z,1008.62
2019-03-31T08:06:58.367Z,1008.64
2019-03-31T08:07:58.343Z,1008.64
2019-03-31T08:08:58.347Z,1008.63
2019-03-31T08:09:58.326Z,1008.64
2019-03-31T08:10:58.315Z,1008.67
2019-03-31T08:11:58.323Z,1008.65
2019-03-31T08:12:58.295Z,1008.69
2019-03-31T08:13:58.282Z,1008.70
2019-03-31T08:14:58.270Z,1008.71
2019-03-31T08:15:58.836Z,1008.69
2019-03-31T08:16:58.455Z,1008.63
2019-03-31T08:17:58.249Z,1008.61
2019-03-31T08:18:58.227Z,1008.58
2019-03-31T08:19:58.220Z,1008.55
2019-03-31T08:20:58.202Z,1008.65
2019-03-31T08:21:58.210Z,1008.60
2019-03-31T08:22:58.240Z,1008.60
2019-03-31T08:23:58.179Z,1008.64
2019-03-31T08:24:58.175Z,1008.61
2019-03-31T08:25:58.181Z,1008.54
2019-03-31T08:27:00.616Z,1008.57
2019-03-31T08:27:58.125Z,1008.61
2019-03-31T08:28:58.697Z,1008.61
2019-03-31T08:30:00.762Z,1008.61
2019-03-31T17:17:40.119Z,1008.62
2019-03-31T17:18:40.819Z,1008.62
2019-03-31T17:19:40.032Z,1008.64
2019-03-31T17:20:40.005Z,1008.66
2019-03-31T17:21:40.007Z,1008.64
2019-03-31T17:22:40.008Z,1008.65
2019-03-31T17:23:40.470Z,1008.72
2019-03-31T17:24:40.002Z,1008.66
2019-03-31T17:25:40.064Z,1008.70
2019-03-31T17:26:40.073Z,1008.71
2019-03-31T17:27:39.915Z,1008.70
2019-03-31T17:28:39.960Z,1008.66
2019-03-31T17:29:39.893Z,1008.73
2019-03-31T17:30:39.867Z,1008.72
2019-03-31T17:31:39.841Z,1008.67
2019-03-31T17:32:39.841Z,1008.64
2019-03-31T17:33:39.868Z,1008.69
2019-03-31T17:34:39.816Z,1008.70
2019-03-31T17:35:39.797Z,1008.66
2019-03-31T17:36:39.790Z,1008.64
2019-03-31T17:37:39.780Z,1008.66
2019-03-31T17:38:39.766Z,1008.66
2019-03-31T17:39:39.880Z,1008.65
2019-03-31T17:40:39.747Z,1008.67
2019-03-31T17:41:39.737Z,1008.69
2019-03-31T17:42:39.728Z,1008.63
2019-03-31T17:43:39.719Z,1008.66
2019-03-31T17:44:39.740Z,1008.65
2019-03-31T17:45:39.716Z,1008.68
2019-03-31T17:46:39.680Z,1008.61
2019-03-31T17:47:39.672Z,1008.62
2019-03-31T17:48:39.679Z,1008.70
2019-03-31T17:49:39.654Z,1008.73
2019-03-31T17:50:40.512Z,1008.68
2019-03-31T17:51:39.934Z,1008.70
2019-03-31T17:52:39.846Z,1008.73
2019-03-31T17:53:39.694Z,1008.71
2019-03-31T17:54:39.600Z,1008.69
2019-03-31T17:55:39.606Z,1008.72
2019-03-31T17:56:39.811Z,1008.72
2019-03-31T17:57:42.224Z,1008.69
2019-03-31T17:58:39.753Z,1008.68
2019-03-31T17:59:40.369Z,1008.73
2019-03-31T18:00:39.613Z,1008.68
2019-03-31T18:01:40.112Z,1008.74
2019-03-31T18:02:39.571Z,1008.76
2019-03-31T18:03:39.605Z,1008.74
2019-03-31T18:04:39.531Z,1008.70
2019-03-31T18:05:39.493Z,1008.73
2019-03-31T18:06:39.632Z,1008.74
2019-03-31T18:07:39.487Z,1008.70
2019-03-31T18:08:42.278Z,1008.75
2019-03-31T18:09:39.501Z,1008.77
2019-03-31T18:10:39.615Z,1008.77
2019-03-31T18:11:39.514Z,1008.76
2019-03-31T18:12:39.514Z,1008.76
2019-03-31T18:13:39.544Z,1008.84
2019-03-31T18:14:39.714Z,1008.83
2019-03-31T18:15:39.658Z,1008.80
2019-03-31T18:16:39.664Z,1008.79
2019-03-31T18:17:39.512Z,1008.85
2019-03-31T18:18:39.884Z,1008.83
2019-03-31T18:19:39.409Z,1008.87
2019-03-31T18:20:39.313Z,1008.88
2019-03-31T18:21:39.299Z,1008.92
2019-03-31T18:22:39.308Z,1008.90
2019-03-31T18:23:39.282Z,1008.97
2019-03-31T18:24:39.269Z,1008.92
2019-03-31T18:25:39.278Z,1008.95
2019-03-31T18:26:39.269Z,1008.95
2019-03-31T18:27:39.234Z,1008.96
2019-03-31T18:28:39.242Z,1008.98
2019-03-31T18:29:39.214Z,1009.02
2019-03-31T18:30:39.217Z,1009.03
2019-03-31T18:31:39.219Z,1009.03
2019-03-31T18:32:39.190Z,1008.97
2019-03-31T18:33:39.174Z,1009.04
2019-03-31T18:34:39.163Z,1009.04
2019-03-31T18:35:39.145Z,1009.05
2019-03-31T18:36:39.138Z,1009.05
2019-03-31T18:37:39.156Z,1009.10
2019-03-31T18:38:39.119Z,1009.14
2019-03-31T18:39:39.119Z,1009.11
2019-03-31T18:40:39.096Z,1009.10
2019-03-31T18:41:39.082Z,1009.14
2019-03-31T18:42:39.074Z,1009.17
2019-03-31T18:43:50.581Z,1009.18
2019-03-31T18:44:40.056Z,1009.20
2019-03-31T18:45:39.043Z,1009.20
2019-03-31T18:46:39.032Z,1009.22
2019-03-31T18:47:39.045Z,1009.22
2019-03-31T18:48:39.009Z,1009.20
2019-03-31T18:49:38.996Z,1009.29
2019-03-31T18:50:38.993Z,1009.25
2019-03-31T18:51:38.983Z,1009.28
2019-03-31T18:52:38.968Z,1009.26
2019-03-31T18:53:38.969Z,1009.26
2019-03-31T18:54:38.947Z,1009.29
2019-03-31T18:55:38.939Z,1009.28
2019-03-31T18:56:38.921Z,1009.30
2019-03-31T18:57:38.913Z,1009.29
2019-03-31T18:58:38.921Z,1009.30
2019-03-31T18:59:38.885Z,1009.35
2019-03-31T19:00:38.882Z,1009.32
2019-03-31T19:01:38.865Z,1009.34
2019-03-31T19:02:38.914Z,1009.37
2019-03-31T19:03:39.017Z,1009.46
2019-03-31T19:04:38.835Z,1009.41
2019-03-31T19:05:38.910Z,1009.43
2019-03-31T19:06:38.860Z,1009.43
2019-03-31T19:07:38.890Z,1009.43
2019-03-31T19:08:39.103Z,1009.42
2019-03-31T19:09:38.960Z,1009.40
2019-03-31T19:10:49.381Z,1009.40
2019-03-31T19:11:39.821Z,1009.42
2019-03-31T19:12:38.832Z,1009.41
2019-03-31T19:13:38.851Z,1009.46
2019-03-31T19:14:38.833Z,1009.43
2019-03-31T19:15:38.810Z,1009.49
2019-03-31T19:16:38.778Z,1009.45
2019-03-31T19:17:38.839Z,1009.47
2019-03-31T19:18:38.813Z,1009.49
2019-03-31T19:19:38.691Z,1009.47
2019-03-31T19:20:38.799Z,1009.49
2019-03-31T19:21:38.811Z,1009.52
2019-03-31T19:22:38.703Z,1009.51
2019-03-31T19:23:38.683Z,1009.49
2019-03-31T19:24:38.670Z,1009.54
2019-03-31T19:25:38.624Z,1009.48
2019-03-31T19:26:48.230Z,1009.54
2019-03-31T19:27:39.681Z,1009.52
2019-03-31T19:28:38.679Z,1009.53
2019-03-31T19:29:38.642Z,1009.58
2019-03-31T19:30:38.567Z,1009.56
2019-03-31T19:31:38.656Z,1009.59
2019-03-31T19:32:39.366Z,1009.57
2019-03-31T19:33:38.657Z,1009.53
2019-03-31T19:34:38.744Z,1009.54
2019-03-31T19:35:38.503Z,1009.56
2019-03-31T19:36:38.542Z,1009.55
2019-03-31T19:37:38.525Z,1009.52
2019-03-31T19:38:38.524Z,1009.57
2019-03-31T19:39:38.471Z,1009.59
2019-03-31T19:40:41.291Z,1009.56
2019-03-31T19:41:38.535Z,1009.56
2019-03-31T19:42:38.491Z,1009.61
2019-03-31T19:43:38.678Z,1009.60
2019-03-31T19:44:38.509Z,1009.60
2019-03-31T19:45:38.479Z,1009.59
2019-03-31T19:46:38.574Z,1009.56
2019-03-31T19:47:38.400Z,1009.61
2019-03-31T19:48:38.423Z,1009.62
2019-03-31T19:49:38.424Z,1009.60
2019-03-31T19:50:38.448Z,1009.58
2019-03-31T19:51:38.352Z,1009.59
2019-03-31T19:52:38.445Z,1009.66
2019-03-31T19:53:38.303Z,1009.66
2019-03-31T19:54:38.338Z,1009.63
2019-03-31T19:55:38.367Z,1009.66
2019-03-31T19:56:38.379Z,1009.63
2019-03-31T19:57:38.390Z,1009.63
2019-03-31T19:58:38.260Z,1009.61
2019-03-31T19:59:38.347Z,1009.60
2019-03-31T20:00:38.422Z,1009.59
2019-03-31T20:01:38.398Z,1009.63
2019-03-31T20:02:38.399Z,1009.65
2019-03-31T20:03:38.687Z,1009.70
2019-03-31T20:04:38.381Z,1009.69
2019-03-31T20:05:38.227Z,1009.69
2019-03-31T20:06:38.162Z,1009.71
2019-03-31T20:07:38.160Z,1009.69
2019-03-31T20:08:38.397Z,1009.66
2019-03-31T20:09:38.134Z,1009.69
2019-03-31T20:10:38.242Z,1009.69
2019-03-31T20:11:38.180Z,1009.65
2019-03-31T20:12:38.177Z,1009.70
2019-03-31T20:13:38.332Z,1009.68
2019-03-31T20:14:38.176Z,1009.68
2019-03-31T20:15:38.069Z,1009.73
2019-03-31T20:16:38.080Z,1009.73
2019-03-31T20:17:38.230Z,1009.74
2019-03-31T20:18:38.122Z,1009.70
2019-03-31T20:19:38.171Z,1009.77
2019-03-31T20:20:38.021Z,1009.79
2019-03-31T20:21:38.821Z,1009.82
2019-03-31T20:22:38.015Z,1009.89
2019-03-31T20:23:37.997Z,1009.84
2019-03-31T20:24:37.970Z,1009.85
2019-03-31T20:25:38.006Z,1009.80
2019-03-31T20:26:37.948Z,1009.82
2019-03-31T20:27:37.945Z,1009.82
2019-03-31T20:28:37.930Z,1009.80
2019-03-31T20:29:37.919Z,1009.83
2019-03-31T20:30:37.903Z,1009.84
2019-03-31T20:31:37.916Z,1009.83
2019-03-31T20:32:37.886Z,1009.84
2019-03-31T20:33:37.874Z,1009.84
2019-03-31T20:34:37.873Z,1009.84
2019-03-31T20:35:37.849Z,1009.87
2019-03-31T20:36:37.871Z,1009.84
2019-03-31T20:37:37.829Z,1009.80
2019-03-31T20:38:37.818Z,1009.86
2019-03-31T20:39:37.809Z,1009.82
2019-03-31T20:40:37.807Z,1009.86
2019-03-31T20:41:37.791Z,1009.84
2019-03-31T20:42:37.804Z,1009.86
2019-03-31T20:43:37.768Z,1009.81
2019-03-31T20:44:37.757Z,1009.89
2019-03-31T20:45:37.748Z,1009.85
2019-03-31T20:46:37.743Z,1009.82
2019-03-31T20:47:37.743Z,1009.86
2019-03-31T20:48:37.710Z,1009.85
2019-03-31T20:49:37.698Z,1009.86
2019-03-31T20:50:37.692Z,1009.86
2019-03-31T20:51:37.690Z,1009.84